Time;durP1;ratioP1;P1;durP2;ratioP2;P2;SDS_P1;SDS_P2;PMS_P1;PMS_P2;Temp;Humidity;BMP_temperature;BMP_pressure;BME280_temperature;BME280_humidity;BME280_pressure;Samples;Min_cycle;Max_cycle;Signal;HPM_P1;HPM_P2
2023/05/06 00:02:34;;;;;;;;;;;;;;;11.98;100.00;95772.25;10526575;28;1967;-76
2023/05/06 00:07:36;;;;;;;;;;;;;;;12.04;100.00;95778.38;10520921;28;1857;-75
2023/05/06 00:12:39;;;;;;;;;;;;;;;12.07;100.00;95778.59;10517729;28;2005;-76
2023/05/06 00:17:41;;;;;;;;;;;;;;;12.11;100.00;95770.78;10525370;28;1910;-77
2023/05/06 00:22:43;;;;;;;;;;;;;;;12.15;100.00;95761.03;10530666;28;2164;-77
2023/05/06 00:27:46;;;;;;;;;;;;;;;12.17;100.00;95765.06;10529237;28;2136;-76
2023/05/06 00:32:48;;;;;;;;;;;;;;;12.14;100.00;95754.84;10527861;28;1946;-76
2023/05/06 00:37:51;;;;;;;;;;;;;;;12.11;100.00;95752.72;10534248;28;2249;-76
2023/05/06 00:42:53;;;;;;;;;;;;;;;11.96;100.00;95746.66;10531402;28;2114;-76
2023/05/06 00:47:55;;;;;;;;;;;;;;;11.78;100.00;95746.25;10525679;28;1934;-76
2023/05/06 00:52:58;;;;;;;;;;;;;;;11.59;100.00;95745.31;10524727;28;2121;-76
2023/05/06 00:58:00;;;;;;;;;;;;;;;11.50;100.00;95744.28;10530302;28;2317;-76
2023/05/06 01:03:03;;;;;;;;;;;;;;;11.37;100.00;95746.50;10533698;28;2152;-76
2023/05/06 01:08:05;;;;;;;;;;;;;;;11.27;100.00;95746.59;10523192;28;2231;-78
2023/05/06 01:13:08;;;;;;;;;;;;;;;11.20;100.00;95735.34;10528212;28;1933;-77
2023/05/06 01:18:10;;;;;;;;;;;;;;;11.08;100.00;95742.94;10522567;28;2071;-75
2023/05/06 01:23:13;;;;;;;;;;;;;;;11.00;100.00;95736.22;10536697;28;5202;-76
2023/05/06 01:28:16;;;;;;;;;;;;;;;10.99;100.00;95731.13;10541286;28;2064;-75
2023/05/06 01:33:18;;;;;;;;;;;;;;;10.91;100.00;95729.03;10541752;28;1961;-75
2023/05/06 01:38:20;;;;;;;;;;;;;;;10.88;100.00;95732.25;10541334;28;2387;-76
2023/05/06 01:43:23;;;;;;;;;;;;;;;10.79;100.00;95738.22;10542629;28;2029;-77
2023/05/06 01:48:26;;;;;;;;;;;;;;;10.75;100.00;95734.50;10538181;28;1990;-77
2023/05/06 01:53:29;;;;;;;;;;;;;;;10.81;100.00;95733.38;10532620;28;2026;-76
2023/05/06 01:58:31;;;;;;;;;;;;;;;10.93;100.00;95743.78;10532757;28;2034;-78
2023/05/06 02:03:36;;;;;;;;;;;;;;;11.05;100.00;95735.41;10527717;28;1986;-77
2023/05/06 02:08:38;;;;;;;;;;;;;;;11.09;100.00;95739.97;10535087;28;2338;-78
2023/05/06 02:13:41;;;;;;;;;;;;;;;11.07;100.00;95735.94;10525266;28;2279;-76
2023/05/06 02:18:44;;;;;;;;;;;;;;;11.07;100.00;95746.72;10532837;28;5107;-77
2023/05/06 02:23:47;;;;;;;;;;;;;;;11.03;100.00;95745.66;10535148;28;2196;-76
2023/05/06 02:28:49;;;;;;;;;;;;;;;10.99;100.00;95744.56;10532771;28;1822;-77
2023/05/06 02:33:51;;;;;;;;;;;;;;;10.98;100.00;95734.91;10562591;27;1960;-75
2023/05/06 02:38:54;;;;;;;;;;;;;;;11.02;100.00;95739.47;10525511;28;2324;-74
2023/05/06 02:43:56;;;;;;;;;;;;;;;11.07;100.00;95746.72;10541765;28;2003;-76
2023/05/06 02:48:59;;;;;;;;;;;;;;;11.08;100.00;95738.34;10534084;28;2137;-77
2023/05/06 02:54:01;;;;;;;;;;;;;;;11.10;100.00;95727.31;10542374;28;1876;-75
2023/05/06 02:59:03;;;;;;;;;;;;;;;11.09;100.00;95728.41;10530987;28;2152;-77
2023/05/06 03:04:06;;;;;;;;;;;;;;;11.11;100.00;95718.16;10534517;28;1929;-76
2023/05/06 03:09:08;;;;;;;;;;;;;;;11.15;100.00;95716.53;10540183;28;1910;-76
2023/05/06 03:14:11;;;;;;;;;;;;;;;11.27;100.00;95724.25;10525630;28;1934;-75
2023/05/06 03:19:13;;;;;;;;;;;;;;;11.34;100.00;95725.56;10525480;28;5142;-76
2023/05/06 03:24:16;;;;;;;;;;;;;;;11.37;100.00;95716.09;10544010;28;1872;-76
2023/05/06 03:29:18;;;;;;;;;;;;;;;11.33;100.00;95713.19;10530245;28;1795;-76
2023/05/06 03:34:20;;;;;;;;;;;;;;;11.21;100.00;95710.03;10520769;28;8423;-77
2023/05/06 03:39:23;;;;;;;;;;;;;;;11.11;100.00;95710.09;10527268;28;5290;-78
2023/05/06 03:44:25;;;;;;;;;;;;;;;10.99;100.00;95712.31;10534849;28;8383;-77
2023/05/06 03:49:28;;;;;;;;;;;;;;;10.95;100.00;95713.97;10539659;28;8196;-76
2023/05/06 03:54:30;;;;;;;;;;;;;;;10.92;100.00;95707.22;10527083;28;1891;-78
2023/05/06 03:59:33;;;;;;;;;;;;;;;10.88;100.00;95705.38;10528796;28;2046;-75
2023/05/06 04:04:35;;;;;;;;;;;;;;;10.88;100.00;95711.56;10527952;28;2069;-75
2023/05/06 04:09:38;;;;;;;;;;;;;;;10.86;100.00;95716.41;10524295;28;8201;-75
2023/05/06 04:14:40;;;;;;;;;;;;;;;10.80;100.00;95715.63;10525619;28;2035;-75
2023/05/06 04:19:42;;;;;;;;;;;;;;;10.87;100.00;95726.06;10529640;28;1975;-75
2023/05/06 04:24:45;;;;;;;;;;;;;;;10.88;100.00;95726.88;10524929;28;2043;-75
2023/05/06 04:29:48;;;;;;;;;;;;;;;10.98;100.00;95733.03;10531464;28;1973;-76
2023/05/06 04:34:50;;;;;;;;;;;;;;;11.00;100.00;95746.19;10527489;28;1895;-75
2023/05/06 04:39:53;;;;;;;;;;;;;;;11.09;100.00;95742.66;10537712;28;8685;-77
2023/05/06 04:44:57;;;;;;;;;;;;;;;11.30;100.00;95751.41;10534049;28;2003;-77
2023/05/06 04:50:00;;;;;;;;;;;;;;;11.52;100.00;95767.16;10539807;28;2045;-77
2023/05/06 04:55:03;;;;;;;;;;;;;;;11.77;100.00;95755.41;10541001;28;2262;-75
2023/05/06 05:00:05;;;;;;;;;;;;;;;12.03;100.00;95768.69;10544862;28;2077;-75
2023/05/06 05:05:08;;;;;;;;;;;;;;;12.20;100.00;95763.69;10531248;28;1966;-76
2023/05/06 05:10:12;;;;;;;;;;;;;;;12.38;100.00;95765.66;10538967;28;2148;-75
2023/05/06 05:15:14;;;;;;;;;;;;;;;12.42;100.00;95777.50;10548826;28;1905;-75
2023/05/06 05:20:17;;;;;;;;;;;;;;;12.62;100.00;95767.59;10532002;28;1981;-75
2023/05/06 05:25:20;;;;;;;;;;;;;;;13.08;100.00;95758.94;10549579;28;1904;-75
2023/05/06 05:30:22;;;;;;;;;;;;;;;13.47;100.00;95751.41;10538542;28;1994;-75
2023/05/06 05:35:25;;;;;;;;;;;;;;;13.34;100.00;95760.25;10534478;28;1924;-75
2023/05/06 05:40:28;;;;;;;;;;;;;;;13.19;100.00;95765.81;10537525;28;5870;-77
2023/05/06 05:45:30;;;;;;;;;;;;;;;13.28;100.00;95772.19;10538360;28;2053;-77
2023/05/06 05:50:33;;;;;;;;;;;;;;;13.44;100.00;95778.22;10534798;28;1908;-74
2023/05/06 05:55:36;;;;;;;;;;;;;;;13.63;100.00;95776.31;10529601;28;2010;-75
2023/05/06 06:00:38;;;;;;;;;;;;;;;13.94;100.00;95771.25;10531764;28;1936;-76
2023/05/06 06:05:41;;;;;;;;;;;;;;;14.06;100.00;95768.91;10539155;28;1879;-76
2023/05/06 06:10:44;;;;;;;;;;;;;;;13.95;100.00;95775.56;10531828;28;2063;-76
2023/05/06 06:15:46;;;;;;;;;;;;;;;13.86;100.00;95777.31;10533590;28;1832;-75
2023/05/06 06:20:48;;;;;;;;;;;;;;;13.98;100.00;95788.47;10540659;28;1914;-76
2023/05/06 06:25:54;;;;;;;;;;;;;;;13.88;100.00;95788.63;10534586;28;1821;-76
2023/05/06 06:30:57;;;;;;;;;;;;;;;14.00;100.00;95799.81;10536967;28;2042;-74
2023/05/06 06:36:00;;;;;;;;;;;;;;;14.12;100.00;95795.81;10533133;28;2013;-75
2023/05/06 06:41:03;;;;;;;;;;;;;;;14.19;100.00;95796.28;10528948;28;5211;-75
2023/05/06 06:46:05;;;;;;;;;;;;;;;14.03;100.00;95809.22;10540443;28;1832;-76
2023/05/06 06:51:09;;;;;;;;;;;;;;;13.97;100.00;95811.19;10524205;28;1934;-75
2023/05/06 06:56:11;;;;;;;;;;;;;;;13.81;100.00;95812.53;10528764;28;1968;-75
2023/05/06 07:01:14;;;;;;;;;;;;;;;13.75;100.00;95824.50;10531098;28;1977;-75
2023/05/06 07:06:16;;;;;;;;;;;;;;;13.94;100.00;95828.00;10530671;28;2117;-73
2023/05/06 07:11:19;;;;;;;;;;;;;;;14.18;100.00;95821.66;10538222;28;1884;-75
2023/05/06 07:16:21;;;;;;;;;;;;;;;14.53;100.00;95804.88;10540356;28;2080;-76
2023/05/06 07:21:24;;;;;;;;;;;;;;;15.01;100.00;95807.22;10531305;28;2082;-76
2023/05/06 07:26:26;;;;;;;;;;;;;;;15.35;100.00;95795.19;10535654;28;1959;-75
2023/05/06 07:31:29;;;;;;;;;;;;;;;15.88;100.00;95791.88;10529937;28;2213;-74
2023/05/06 07:36:38;;;;;;;;;;;;;;;16.15;100.00;95794.47;10527150;28;2020;-74
2023/05/06 07:41:41;;;;;;;;;;;;;;;17.04;100.00;95790.03;10524785;28;5198;-76
2023/05/06 07:46:44;;;;;;;;;;;;;;;16.56;100.00;95779.91;10525927;28;2018;-75
2023/05/06 07:51:47;;;;;;;;;;;;;;;16.70;100.00;95798.84;10529767;28;2106;-74
2023/05/06 07:56:49;;;;;;;;;;;;;;;16.82;100.00;95801.78;10539377;28;1875;-75
2023/05/06 08:01:52;;;;;;;;;;;;;;;17.97;100.00;95803.38;10524649;28;1986;-76
2023/05/06 08:06:55;;;;;;;;;;;;;;;18.09;100.00;95798.09;10527722;28;1947;-75
2023/05/06 08:11:58;;;;;;;;;;;;;;;17.82;100.00;95806.56;10534843;28;1896;-75
2023/05/06 08:17:01;;;;;;;;;;;;;;;17.48;100.00;95807.25;10531944;28;1908;-77
2023/05/06 08:22:03;;;;;;;;;;;;;;;17.13;100.00;95815.31;10535434;28;1978;-75
2023/05/06 08:27:06;;;;;;;;;;;;;;;17.52;100.00;95816.41;10528796;28;2169;-76
2023/05/06 08:32:08;;;;;;;;;;;;;;;17.58;100.00;95817.84;10542175;28;1844;-76
2023/05/06 08:37:11;;;;;;;;;;;;;;;17.68;100.00;95819.44;10538415;28;1885;-75
2023/05/06 08:42:13;;;;;;;;;;;;;;;17.76;100.00;95811.34;10526658;28;5118;-74
2023/05/06 08:47:16;;;;;;;;;;;;;;;18.03;100.00;95810.25;10522833;28;1902;-76
2023/05/06 08:52:20;;;;;;;;;;;;;;;19.05;100.00;95814.25;10528654;28;1951;-74
2023/05/06 08:57:22;;;;;;;;;;;;;;;19.44;100.00;95804.94;10520985;28;1851;-75
2023/05/06 09:02:24;;;;;;;;;;;;;;;19.58;100.00;95794.59;10530851;28;1886;-75
2023/05/06 09:07:27;;;;;;;;;;;;;;;19.58;100.00;95796.53;10528265;28;2070;-76
2023/05/06 09:12:29;;;;;;;;;;;;;;;19.60;100.00;95803.28;10526898;28;1878;-74
2023/05/06 09:17:32;;;;;;;;;;;;;;;20.02;100.00;95795.09;10525539;28;1935;-74
2023/05/06 09:22:35;;;;;;;;;;;;;;;19.99;100.00;95795.78;10532984;28;2055;-75
2023/05/06 09:27:37;;;;;;;;;;;;;;;19.06;100.00;95799.50;10532056;28;2308;-74
2023/05/06 09:32:40;;;;;;;;;;;;;;;18.90;100.00;95800.06;10530551;28;2017;-75
2023/05/06 09:37:42;;;;;;;;;;;;;;;18.86;100.00;95799.09;10525583;28;1946;-74
2023/05/06 09:42:45;;;;;;;;;;;;;;;18.55;100.00;95793.84;10528939;28;5176;-75
2023/05/06 09:47:48;;;;;;;;;;;;;;;19.43;100.00;95789.69;10528903;28;2003;-76
2023/05/06 09:52:50;;;;;;;;;;;;;;;18.74;100.00;95793.53;10527160;28;2060;-75
2023/05/06 09:57:53;;;;;;;;;;;;;;;18.59;100.00;95796.75;10526974;28;1917;-75
2023/05/06 10:02:55;;;;;;;;;;;;;;;17.82;100.00;95791.06;10531162;28;2053;-74
2023/05/06 10:07:58;;;;;;;;;;;;;;;17.28;100.00;95793.16;10530206;28;1884;-75
2023/05/06 10:13:01;;;;;;;;;;;;;;;18.22;100.00;95796.31;10528933;28;1832;-76
2023/05/06 10:18:03;;;;;;;;;;;;;;;19.36;100.00;95779.31;10527013;28;2004;-76
2023/05/06 10:23:06;;;;;;;;;;;;;;;20.12;100.00;95777.53;10526142;28;1914;-75
2023/05/06 10:28:08;;;;;;;;;;;;;;;19.96;100.00;95774.59;10530647;28;1888;-75
2023/05/06 10:33:25;;;;;;;;;;;;;;;19.86;100.00;95775.81;10531023;28;1876;-74
2023/05/06 10:38:28;;;;;;;;;;;;;;;19.69;100.00;95756.84;10531055;28;1931;-75
2023/05/06 10:43:31;;;;;;;;;;;;;;;19.45;100.00;95750.06;10524807;28;4914;-75
2023/05/06 10:48:33;;;;;;;;;;;;;;;18.92;100.00;95747.97;10520256;28;1876;-77
2023/05/06 10:53:36;;;;;;;;;;;;;;;18.87;100.00;95737.25;10528140;28;1920;-75
2023/05/06 10:58:38;;;;;;;;;;;;;;;19.02;100.00;95730.44;10521640;28;1899;-74
2023/05/06 11:03:41;;;;;;;;;;;;;;;19.08;100.00;95731.84;10530264;28;1925;-76
2023/05/06 11:08:44;;;;;;;;;;;;;;;19.72;100.00;95731.63;10543963;28;1526;-75
2023/05/06 11:13:48;;;;;;;;;;;;;;;20.29;100.00;95711.84;10545654;28;2285;-75
2023/05/06 11:18:51;;;;;;;;;;;;;;;21.18;100.00;95714.03;10530244;28;1616;-76
2023/05/06 11:23:54;;;;;;;;;;;;;;;21.05;100.00;95722.22;10524614;28;1945;-76
2023/05/06 11:28:56;;;;;;;;;;;;;;;19.85;100.00;95724.31;10522608;28;1484;-75
2023/05/06 11:33:59;;;;;;;;;;;;;;;19.49;100.00;95716.72;10519158;28;1682;-76
2023/05/06 11:39:02;;;;;;;;;;;;;;;19.12;100.00;95716.44;10523099;28;1650;-78
2023/05/06 11:44:06;;;;;;;;;;;;;;;19.52;100.00;95718.75;10529109;28;5179;-75
2023/05/06 11:49:12;;;;;;;;;;;;;;;20.12;100.00;95712.84;10523873;28;1542;-75
2023/05/06 11:54:17;;;;;;;;;;;;;;;20.33;100.00;95706.53;10522422;28;1581;-74
2023/05/06 11:59:20;;;;;;;;;;;;;;;20.44;100.00;95692.09;10526518;28;1876;-74
2023/05/06 12:04:22;;;;;;;;;;;;;;;19.89;100.00;95715.13;10527840;28;1917;-75
2023/05/06 12:09:25;;;;;;;;;;;;;;;20.30;100.00;95699.03;10517238;28;1919;-74
2023/05/06 12:14:28;;;;;;;;;;;;;;;20.84;100.00;95699.69;10535631;28;2078;-75
2023/05/06 12:19:30;;;;;;;;;;;;;;;21.48;95.44;95690.78;10526992;28;1902;-74
2023/05/06 12:24:33;;;;;;;;;;;;;;;21.76;93.20;95690.84;10536227;28;2049;-75
2023/05/06 12:29:35;;;;;;;;;;;;;;;20.80;100.00;95690.56;10529265;28;1857;-74
2023/05/06 12:34:38;;;;;;;;;;;;;;;20.81;100.00;95686.72;10530380;28;1883;-74
2023/05/06 12:39:40;;;;;;;;;;;;;;;19.94;100.00;95682.19;10513515;28;5178;-72
2023/05/06 12:44:42;;;;;;;;;;;;;;;19.82;100.00;95687.59;10532723;28;2055;-73
2023/05/06 12:49:45;;;;;;;;;;;;;;;20.56;100.00;95682.38;10522362;28;1912;-74
2023/05/06 12:54:47;;;;;;;;;;;;;;;21.20;99.91;95687.97;10525181;28;2002;-74
2023/05/06 12:59:50;;;;;;;;;;;;;;;21.16;88.78;95678.84;10522891;28;1991;-74
2023/05/06 13:04:52;;;;;;;;;;;;;;;20.84;91.81;95677.03;10523683;28;2094;-75
2023/05/06 13:09:55;;;;;;;;;;;;;;;20.99;95.71;95663.50;10516859;28;2050;-73
2023/05/06 13:14:57;;;;;;;;;;;;;;;20.24;100.00;95661.03;10523134;28;1938;-75
2023/05/06 13:20:00;;;;;;;;;;;;;;;19.89;100.00;95663.28;10541593;28;1970;-74
2023/05/06 13:25:05;;;;;;;;;;;;;;;20.00;100.00;95658.22;10532851;28;1960;-74
2023/05/06 13:30:07;;;;;;;;;;;;;;;20.37;99.66;95642.72;10558236;27;2076;-74
2023/05/06 13:35:10;;;;;;;;;;;;;;;20.64;96.50;95646.75;10536178;28;1951;-74
2023/05/06 13:40:13;;;;;;;;;;;;;;;20.68;99.10;95641.44;10527868;28;5099;-72
2023/05/06 13:45:16;;;;;;;;;;;;;;;20.88;93.78;95635.03;10531320;28;1852;-75
2023/05/06 13:50:18;;;;;;;;;;;;;;;20.55;96.62;95637.06;10520054;28;1860;-75
2023/05/06 13:55:20;;;;;;;;;;;;;;;20.67;97.90;95631.63;10521484;28;1852;-75
2023/05/06 14:00:23;;;;;;;;;;;;;;;20.84;96.52;95623.19;10532745;28;6248;-74
2023/05/06 14:05:25;;;;;;;;;;;;;;;21.50;89.47;95614.69;10537450;28;8235;-73
2023/05/06 14:10:28;;;;;;;;;;;;;;;21.65;89.77;95612.34;10519405;28;8307;-73
2023/05/06 14:15:30;;;;;;;;;;;;;;;20.75;92.68;95620.59;10519147;28;8470;-76
2023/05/06 14:20:32;;;;;;;;;;;;;;;20.62;94.09;95610.03;10520261;28;8434;-75
2023/05/06 14:25:35;;;;;;;;;;;;;;;20.87;90.53;95613.53;10523475;28;8234;-74
2023/05/06 14:30:38;;;;;;;;;;;;;;;21.74;87.46;95604.75;10530570;28;1947;-74
2023/05/06 14:35:40;;;;;;;;;;;;;;;21.77;81.95;95598.59;10526546;28;8214;-72
2023/05/06 14:40:43;;;;;;;;;;;;;;;22.31;78.26;95589.88;10529714;28;1902;-74
2023/05/06 14:45:46;;;;;;;;;;;;;;;22.45;75.99;95592.94;10522735;28;1863;-74
2023/05/06 14:50:48;;;;;;;;;;;;;;;21.69;79.93;95594.06;10528973;28;8247;-73
2023/05/06 14:55:50;;;;;;;;;;;;;;;21.05;83.00;95595.72;10538048;28;2018;-73
2023/05/06 15:00:53;;;;;;;;;;;;;;;20.56;88.54;95595.78;10531488;28;1943;-73
2023/05/06 15:05:55;;;;;;;;;;;;;;;20.73;84.89;95595.53;10527022;28;1975;-72
2023/05/06 15:10:58;;;;;;;;;;;;;;;21.13;84.73;95585.81;10528065;28;1860;-73
2023/05/06 15:16:02;;;;;;;;;;;;;;;20.96;82.85;95586.88;10532728;28;1887;-75
2023/05/06 15:21:05;;;;;;;;;;;;;;;20.80;83.97;95586.75;10535709;28;2013;-74
2023/05/06 15:26:07;;;;;;;;;;;;;;;21.18;80.78;95583.63;10528130;28;8487;-77
2023/05/06 15:31:10;;;;;;;;;;;;;;;21.23;80.92;95586.13;10528483;28;1963;-72
2023/05/06 15:36:12;;;;;;;;;;;;;;;21.32;80.63;95586.03;10526642;28;1849;-74
2023/05/06 15:41:15;;;;;;;;;;;;;;;21.20;80.60;95603.22;10522631;28;1918;-73
2023/05/06 15:46:17;;;;;;;;;;;;;;;21.07;81.80;95598.13;10522829;28;1573;-73
2023/05/06 15:51:20;;;;;;;;;;;;;;;21.09;82.58;95595.84;10527202;28;1374;-73
2023/05/06 15:56:23;;;;;;;;;;;;;;;21.27;81.03;95592.50;10519511;28;1702;-76
2023/05/06 16:01:29;;;;;;;;;;;;;;;20.83;80.11;95585.31;10521653;28;1977;-75
2023/05/06 16:06:39;;;;;;;;;;;;;;;20.29;83.11;95585.50;10525002;28;1396;-74
2023/05/06 16:11:42;;;;;;;;;;;;;;;20.37;82.95;95590.88;10528074;28;1593;-73
2023/05/06 16:16:45;;;;;;;;;;;;;;;20.52;82.90;95584.75;10526331;28;1481;-74
2023/05/06 16:21:48;;;;;;;;;;;;;;;20.60;81.28;95584.97;10524812;28;2050;-73
2023/05/06 16:26:50;;;;;;;;;;;;;;;20.46;82.92;95580.66;10528005;28;5191;-76
2023/05/06 16:31:52;;;;;;;;;;;;;;;19.95;91.57;95587.50;10524658;28;1493;-76
2023/05/06 16:36:56;;;;;;;;;;;;;;;19.85;91.31;95577.84;10527131;28;1581;-76
2023/05/06 16:41:58;;;;;;;;;;;;;;;19.91;92.59;95581.94;10522058;28;1975;-76
2023/05/06 16:47:01;;;;;;;;;;;;;;;19.84;93.25;95584.41;10531033;28;1526;-77
2023/05/06 16:52:03;;;;;;;;;;;;;;;19.59;94.20;95577.28;10532270;28;1476;-77
2023/05/06 16:57:05;;;;;;;;;;;;;;;19.34;95.85;95577.19;10563464;27;1559;-76
2023/05/06 17:02:08;;;;;;;;;;;;;;;18.96;99.23;95580.03;10538030;28;1902;-75
2023/05/06 17:07:10;;;;;;;;;;;;;;;18.76;100.00;95570.69;10568019;27;1469;-76
2023/05/06 17:12:13;;;;;;;;;;;;;;;18.61;100.00;95568.53;10541605;28;1565;-75
2023/05/06 17:17:15;;;;;;;;;;;;;;;18.47;100.00;95570.72;10529076;28;2154;-75
2023/05/06 17:22:19;;;;;;;;;;;;;;;18.37;100.00;95575.38;10535163;28;1917;-75
2023/05/06 17:27:22;;;;;;;;;;;;;;;18.19;100.00;95573.84;10528667;28;5174;-75
2023/05/06 17:32:24;;;;;;;;;;;;;;;18.10;100.00;95570.38;10537333;28;1473;-74
2023/05/06 17:37:27;;;;;;;;;;;;;;;17.98;100.00;95562.91;10535300;28;1530;-75
2023/05/06 17:42:30;;;;;;;;;;;;;;;17.89;100.00;95574.97;10534657;28;1979;-77
2023/05/06 17:47:33;;;;;;;;;;;;;;;17.79;100.00;95568.72;10538246;28;1478;-74
2023/05/06 17:52:35;;;;;;;;;;;;;;;17.72;100.00;95583.94;10536277;28;1764;-75
2023/05/06 17:57:37;;;;;;;;;;;;;;;17.58;100.00;95586.03;10531345;28;1911;-75
2023/05/06 18:02:40;;;;;;;;;;;;;;;17.51;100.00;95581.88;10533389;28;1909;-74
2023/05/06 18:07:42;;;;;;;;;;;;;;;17.33;100.00;95584.94;10531386;28;1488;-74
2023/05/06 18:12:45;;;;;;;;;;;;;;;17.15;100.00;95589.56;10536950;28;1522;-76
2023/05/06 18:17:48;;;;;;;;;;;;;;;16.96;100.00;95593.41;10531323;28;2440;-75
2023/05/06 18:22:50;;;;;;;;;;;;;;;16.83;100.00;95596.25;10530416;28;1910;-74
2023/05/06 18:27:53;;;;;;;;;;;;;;;16.57;100.00;95601.63;10525820;28;5159;-73
2023/05/06 18:32:55;;;;;;;;;;;;;;;16.41;100.00;95598.53;10534715;28;1501;-74
2023/05/06 18:37:58;;;;;;;;;;;;;;;16.24;100.00;95606.63;10525993;28;1838;-75
2023/05/06 18:43:01;;;;;;;;;;;;;;;16.02;100.00;95613.69;10522471;28;1914;-76
2023/05/06 18:48:03;;;;;;;;;;;;;;;15.99;100.00;95608.91;10522002;28;1470;-78
2023/05/06 18:53:06;;;;;;;;;;;;;;;15.79;100.00;95617.56;10529006;28;1359;-79
2023/05/06 18:58:09;;;;;;;;;;;;;;;15.70;100.00;95616.69;10527947;28;1795;-76
2023/05/06 19:03:11;;;;;;;;;;;;;;;15.59;100.00;95625.06;10518643;28;1967;-74
2023/05/06 19:08:14;;;;;;;;;;;;;;;15.55;100.00;95626.78;10515998;28;3103;-75
2023/05/06 19:13:17;;;;;;;;;;;;;;;15.46;100.00;95628.66;10520669;28;3149;-74
2023/05/06 19:18:19;;;;;;;;;;;;;;;15.38;100.00;95632.88;10526775;28;2513;-74
2023/05/06 19:23:22;;;;;;;;;;;;;;;15.27;100.00;95633.41;10530174;28;2585;-75
2023/05/06 19:28:24;;;;;;;;;;;;;;;15.10;100.00;95629.47;10529415;28;5285;-74
2023/05/06 19:33:27;;;;;;;;;;;;;;;15.06;100.00;95622.25;10531631;28;1474;-74
2023/05/06 19:38:30;;;;;;;;;;;;;;;14.91;100.00;95631.53;10526585;28;1538;-74
2023/05/06 19:43:32;;;;;;;;;;;;;;;14.84;100.00;95633.84;10530341;28;1909;-75
2023/05/06 19:48:35;;;;;;;;;;;;;;;14.87;100.00;95638.63;10528900;28;2643;-74
2023/05/06 19:53:38;;;;;;;;;;;;;;;14.90;100.00;95638.06;10529316;28;1537;-74
2023/05/06 19:58:41;;;;;;;;;;;;;;;14.94;100.00;95644.44;10527779;28;1807;-76
2023/05/06 20:03:43;;;;;;;;;;;;;;;14.97;100.00;95632.22;10528895;28;1910;-75
2023/05/06 20:08:46;;;;;;;;;;;;;;;14.90;100.00;95632.63;10522200;28;2186;-75
2023/05/06 20:13:48;;;;;;;;;;;;;;;14.96;100.00;95630.63;10524602;28;1526;-74
2023/05/06 20:18:51;;;;;;;;;;;;;;;14.91;100.00;95639.66;10525002;28;1509;-76
2023/05/06 20:23:54;;;;;;;;;;;;;;;14.84;100.00;95623.03;10527173;28;1979;-75
2023/05/06 20:28:56;;;;;;;;;;;;;;;14.66;100.00;95629.38;10523534;28;5564;-75
2023/05/06 20:33:59;;;;;;;;;;;;;;;14.70;100.00;95628.47;10517512;28;2083;-74
2023/05/06 20:39:01;;;;;;;;;;;;;;;14.60;100.00;95636.78;10521869;28;1886;-75
2023/05/06 20:44:04;;;;;;;;;;;;;;;14.53;100.00;95628.28;10523243;28;1987;-74
2023/05/06 20:49:06;;;;;;;;;;;;;;;14.44;100.00;95628.16;10527680;28;2958;-74
2023/05/06 20:54:08;;;;;;;;;;;;;;;14.34;100.00;95631.06;10529673;28;1887;-74
2023/05/06 20:59:11;;;;;;;;;;;;;;;14.20;100.00;95635.66;10529748;28;1903;-72
2023/05/06 21:04:13;;;;;;;;;;;;;;;14.06;100.00;95633.75;10532548;28;2053;-72
2023/05/06 21:09:16;;;;;;;;;;;;;;;14.00;100.00;95644.97;10519027;28;1895;-72
2023/05/06 21:14:18;;;;;;;;;;;;;;;13.92;100.00;95630.22;10522669;28;1865;-74
2023/05/06 21:19:21;;;;;;;;;;;;;;;13.84;100.00;95628.19;10521872;28;1750;-73
2023/05/06 21:24:23;;;;;;;;;;;;;;;13.82;100.00;95630.41;10518554;28;5167;-75
2023/05/06 21:29:26;;;;;;;;;;;;;;;13.85;100.00;95635.19;10525353;28;1876;-73
2023/05/06 21:34:28;;;;;;;;;;;;;;;13.75;100.00;95636.19;10528269;28;1855;-76
2023/05/06 21:39:31;;;;;;;;;;;;;;;13.68;100.00;95640.38;10536495;28;1848;-74
2023/05/06 21:44:33;;;;;;;;;;;;;;;13.65;100.00;95638.25;10540896;28;2101;-73
2023/05/06 21:49:35;;;;;;;;;;;;;;;13.59;100.00;95636.75;10532360;28;1788;-73
2023/05/06 21:54:38;;;;;;;;;;;;;;;13.53;100.00;95634.13;10525581;28;1839;-72
2023/05/06 21:59:40;;;;;;;;;;;;;;;13.51;100.00;95644.44;10530699;28;2200;-73
2023/05/06 22:04:43;;;;;;;;;;;;;;;13.42;100.00;95634.56;10529000;28;1894;-74
2023/05/06 22:09:45;;;;;;;;;;;;;;;13.38;100.00;95642.47;10525338;28;1589;-72
2023/05/06 22:14:47;;;;;;;;;;;;;;;13.29;100.00;95649.63;10529154;28;2238;-73
2023/05/06 22:19:50;;;;;;;;;;;;;;;13.22;100.00;95644.59;10529847;28;1869;-73
2023/05/06 22:24:53;;;;;;;;;;;;;;;13.21;100.00;95642.19;10531832;28;5150;-74
2023/05/06 22:29:56;;;;;;;;;;;;;;;13.12;100.00;95641.25;10529328;28;1892;-74
2023/05/06 22:34:58;;;;;;;;;;;;;;;13.09;100.00;95645.31;10527392;28;1931;-73
2023/05/06 22:40:00;;;;;;;;;;;;;;;13.03;100.00;95648.38;10533362;28;1907;-72
2023/05/06 22:45:03;;;;;;;;;;;;;;;12.98;100.00;95635.78;10528145;28;1967;-73
2023/05/06 22:50:05;;;;;;;;;;;;;;;12.95;100.00;95629.06;10531458;28;1860;-73
2023/05/06 22:55:08;;;;;;;;;;;;;;;12.87;100.00;95637.81;10525348;28;2093;-72
2023/05/06 23:00:12;;;;;;;;;;;;;;;12.79;100.00;95635.78;10529907;28;1922;-72
2023/05/06 23:05:15;;;;;;;;;;;;;;;12.73;100.00;95630.75;10535750;28;2165;-72
2023/05/06 23:10:17;;;;;;;;;;;;;;;12.64;100.00;95634.06;10529553;28;1905;-75
2023/05/06 23:15:20;;;;;;;;;;;;;;;12.65;100.00;95634.84;10524475;28;2316;-73
2023/05/06 23:20:23;;;;;;;;;;;;;;;12.58;100.00;95632.53;10523832;28;2148;-75
2023/05/06 23:25:26;;;;;;;;;;;;;;;12.57;100.00;95616.63;10534429;28;5115;-72
2023/05/06 23:30:29;;;;;;;;;;;;;;;12.57;100.00;95616.63;10523167;28;1836;-72
2023/05/06 23:35:32;;;;;;;;;;;;;;;12.50;100.00;95624.28;10531953;28;1876;-73
2023/05/06 23:40:34;;;;;;;;;;;;;;;12.42;100.00;95631.13;10521658;28;1924;-71
2023/05/06 23:45:37;;;;;;;;;;;;;;;12.40;100.00;95628.69;10528662;28;1985;-75
2023/05/06 23:50:40;;;;;;;;;;;;;;;12.33;100.00;95628.25;10534610;28;2034;-72
2023/05/06 23:55:42;;;;;;;;;;;;;;;12.35;100.00;95633.38;10535222;28;1876;-72
